sensor_id;sensor_type;location;lat;lon;timestamp;P1;durP1;ratioP1;P2;durP2;ratioP2
36443;SDS011;24692;45.642;13.806;2024-02-04T00:01:41;20.47;;;13.43;;
36443;SDS011;24692;45.642;13.806;2024-02-04T00:04:07;19.20;;;13.20;;
36443;SDS011;24692;45.642;13.806;2024-02-04T00:06:33;21.60;;;13.97;;
36443;SDS011;24692;45.642;13.806;2024-02-04T00:08:59;24.57;;;16.27;;
36443;SDS011;24692;45.642;13.806;2024-02-04T00:11:24;20.20;;;14.63;;
36443;SDS011;24692;45.642;13.806;2024-02-04T00:13:50;26.03;;;14.13;;
36443;SDS011;24692;45.642;13.806;2024-02-04T00:16:16;19.20;;;13.00;;
36443;SDS011;24692;45.642;13.806;2024-02-04T00:18:41;18.63;;;12.37;;
36443;SDS011;24692;45.642;13.806;2024-02-04T00:21:08;19.13;;;11.70;;
36443;SDS011;24692;45.642;13.806;2024-02-04T00:23:34;19.57;;;12.47;;
36443;SDS011;24692;45.642;13.806;2024-02-04T00:25:59;17.57;;;11.03;;
36443;SDS011;24692;45.642;13.806;2024-02-04T00:28:25;20.20;;;11.73;;
36443;SDS011;24692;45.642;13.806;2024-02-04T00:30:52;17.40;;;11.63;;
36443;SDS011;24692;45.642;13.806;2024-02-04T00:33:20;19.60;;;12.07;;
36443;SDS011;24692;45.642;13.806;2024-02-04T00:35:46;18.03;;;11.97;;
36443;SDS011;24692;45.642;13.806;2024-02-04T00:38:13;19.13;;;12.20;;
36443;SDS011;24692;45.642;13.806;2024-02-04T00:40:38;16.43;;;11.90;;
36443;SDS011;24692;45.642;13.806;2024-02-04T00:43:04;21.23;;;12.43;;
36443;SDS011;24692;45.642;13.806;2024-02-04T00:45:30;19.90;;;12.27;;
36443;SDS011;24692;45.642;13.806;2024-02-04T00:47:56;20.30;;;12.47;;
36443;SDS011;24692;45.642;13.806;2024-02-04T00:50:21;18.93;;;12.63;;
36443;SDS011;24692;45.642;13.806;2024-02-04T00:52:47;17.53;;;11.60;;
36443;SDS011;24692;45.642;13.806;2024-02-04T00:55:13;18.20;;;11.83;;
36443;SDS011;24692;45.642;13.806;2024-02-04T00:57:38;18.43;;;11.70;;
36443;SDS011;24692;45.642;13.806;2024-02-04T01:00:04;19.47;;;11.80;;
36443;SDS011;24692;45.642;13.806;2024-02-04T01:02:30;17.23;;;10.70;;
36443;SDS011;24692;45.642;13.806;2024-02-04T01:04:56;15.67;;;10.50;;
36443;SDS011;24692;45.642;13.806;2024-02-04T01:07:22;15.37;;;10.53;;
36443;SDS011;24692;45.642;13.806;2024-02-04T01:09:47;19.37;;;11.63;;
36443;SDS011;24692;45.642;13.806;2024-02-04T01:12:13;16.83;;;10.87;;
36443;SDS011;24692;45.642;13.806;2024-02-04T01:14:39;18.00;;;11.20;;
36443;SDS011;24692;45.642;13.806;2024-02-04T01:17:04;15.03;;;9.93;;
36443;SDS011;24692;45.642;13.806;2024-02-04T01:19:30;17.07;;;11.03;;
36443;SDS011;24692;45.642;13.806;2024-02-04T01:21:56;19.27;;;11.43;;
36443;SDS011;24692;45.642;13.806;2024-02-04T01:24:23;16.70;;;10.50;;
36443;SDS011;24692;45.642;13.806;2024-02-04T01:26:50;16.63;;;10.63;;
36443;SDS011;24692;45.642;13.806;2024-02-04T01:29:15;17.23;;;10.70;;
36443;SDS011;24692;45.642;13.806;2024-02-04T01:31:41;16.53;;;10.60;;
36443;SDS011;24692;45.642;13.806;2024-02-04T01:34:07;18.03;;;11.13;;
36443;SDS011;24692;45.642;13.806;2024-02-04T01:36:33;15.77;;;10.40;;
36443;SDS011;24692;45.642;13.806;2024-02-04T01:38:58;18.60;;;11.93;;
36443;SDS011;24692;45.642;13.806;2024-02-04T01:41:24;18.17;;;11.37;;
36443;SDS011;24692;45.642;13.806;2024-02-04T01:43:52;17.60;;;11.40;;
36443;SDS011;24692;45.642;13.806;2024-02-04T01:46:18;18.50;;;11.77;;
36443;SDS011;24692;45.642;13.806;2024-02-04T01:48:44;17.47;;;10.80;;
36443;SDS011;24692;45.642;13.806;2024-02-04T01:51:10;18.33;;;11.90;;
36443;SDS011;24692;45.642;13.806;2024-02-04T01:53:37;18.20;;;10.77;;
36443;SDS011;24692;45.642;13.806;2024-02-04T01:56:06;18.73;;;11.63;;
36443;SDS011;24692;45.642;13.806;2024-02-04T01:58:32;17.07;;;11.20;;
36443;SDS011;24692;45.642;13.806;2024-02-04T02:00:58;23.13;;;12.17;;
36443;SDS011;24692;45.642;13.806;2024-02-04T02:03:24;16.87;;;11.93;;
36443;SDS011;24692;45.642;13.806;2024-02-04T02:05:51;18.00;;;11.07;;
36443;SDS011;24692;45.642;13.806;2024-02-04T02:08:17;17.57;;;11.57;;
36443;SDS011;24692;45.642;13.806;2024-02-04T02:10:43;18.53;;;11.57;;
36443;SDS011;24692;45.642;13.806;2024-02-04T02:13:18;16.03;;;11.67;;
36443;SDS011;24692;45.642;13.806;2024-02-04T02:15:50;18.93;;;12.37;;
36443;SDS011;24692;45.642;13.806;2024-02-04T02:23:36;20.60;;;11.63;;
36443;SDS011;24692;45.642;13.806;2024-02-04T02:26:13;19.97;;;12.80;;
36443;SDS011;24692;45.642;13.806;2024-02-04T02:28:40;19.40;;;13.17;;
36443;SDS011;24692;45.642;13.806;2024-02-04T02:31:05;18.37;;;12.80;;
36443;SDS011;24692;45.642;13.806;2024-02-04T02:33:31;17.33;;;12.30;;
36443;SDS011;24692;45.642;13.806;2024-02-04T02:35:57;20.23;;;13.97;;
36443;SDS011;24692;45.642;13.806;2024-02-04T02:38:31;21.70;;;13.80;;
36443;SDS011;24692;45.642;13.806;2024-02-04T02:41:07;21.70;;;13.83;;
36443;SDS011;24692;45.642;13.806;2024-02-04T02:43:34;20.60;;;13.63;;
36443;SDS011;24692;45.642;13.806;2024-02-04T02:46:04;23.73;;;15.13;;
36443;SDS011;24692;45.642;13.806;2024-02-04T02:48:31;21.70;;;14.17;;
36443;SDS011;24692;45.642;13.806;2024-02-04T02:50:57;23.30;;;15.03;;
36443;SDS011;24692;45.642;13.806;2024-02-04T02:53:23;23.97;;;14.63;;
36443;SDS011;24692;45.642;13.806;2024-02-04T02:55:49;24.20;;;15.60;;
36443;SDS011;24692;45.642;13.806;2024-02-04T02:58:14;20.53;;;13.40;;
36443;SDS011;24692;45.642;13.806;2024-02-04T03:00:40;21.53;;;14.00;;
36443;SDS011;24692;45.642;13.806;2024-02-04T03:03:06;21.70;;;14.03;;
36443;SDS011;24692;45.642;13.806;2024-02-04T03:05:31;23.20;;;15.07;;
36443;SDS011;24692;45.642;13.806;2024-02-04T03:07:58;21.37;;;13.70;;
36443;SDS011;24692;45.642;13.806;2024-02-04T03:10:23;20.90;;;13.60;;
36443;SDS011;24692;45.642;13.806;2024-02-04T03:12:49;22.73;;;13.90;;
36443;SDS011;24692;45.642;13.806;2024-02-04T03:15:15;23.43;;;13.83;;
36443;SDS011;24692;45.642;13.806;2024-02-04T03:17:42;21.43;;;13.47;;
36443;SDS011;24692;45.642;13.806;2024-02-04T03:20:08;22.03;;;14.13;;
36443;SDS011;24692;45.642;13.806;2024-02-04T03:22:35;20.47;;;13.73;;
36443;SDS011;24692;45.642;13.806;2024-02-04T03:25:00;20.20;;;13.10;;
36443;SDS011;24692;45.642;13.806;2024-02-04T03:27:26;17.40;;;12.07;;
36443;SDS011;24692;45.642;13.806;2024-02-04T03:29:52;18.30;;;11.37;;
36443;SDS011;24692;45.642;13.806;2024-02-04T03:32:17;18.47;;;11.93;;
36443;SDS011;24692;45.642;13.806;2024-02-04T03:34:43;18.20;;;11.60;;
36443;SDS011;24692;45.642;13.806;2024-02-04T03:37:09;18.23;;;11.77;;
36443;SDS011;24692;45.642;13.806;2024-02-04T03:39:35;18.63;;;11.83;;
36443;SDS011;24692;45.642;13.806;2024-02-04T03:42:00;16.43;;;11.17;;
36443;SDS011;24692;45.642;13.806;2024-02-04T03:44:26;18.10;;;12.07;;
36443;SDS011;24692;45.642;13.806;2024-02-04T03:46:52;20.17;;;13.13;;
36443;SDS011;24692;45.642;13.806;2024-02-04T03:49:17;17.67;;;11.97;;
36443;SDS011;24692;45.642;13.806;2024-02-04T03:51:43;21.33;;;13.10;;
36443;SDS011;24692;45.642;13.806;2024-02-04T03:54:09;17.70;;;12.23;;
36443;SDS011;24692;45.642;13.806;2024-02-04T03:56:35;18.60;;;12.33;;
36443;SDS011;24692;45.642;13.806;2024-02-04T03:59:01;19.23;;;12.77;;
36443;SDS011;24692;45.642;13.806;2024-02-04T04:01:26;18.97;;;11.50;;
36443;SDS011;24692;45.642;13.806;2024-02-04T04:03:52;17.77;;;11.60;;
36443;SDS011;24692;45.642;13.806;2024-02-04T04:06:17;17.53;;;10.83;;
36443;SDS011;24692;45.642;13.806;2024-02-04T04:08:43;13.97;;;10.10;;
36443;SDS011;24692;45.642;13.806;2024-02-04T04:11:09;18.50;;;10.10;;
36443;SDS011;24692;45.642;13.806;2024-02-04T04:13:35;16.73;;;10.63;;
36443;SDS011;24692;45.642;13.806;2024-02-04T04:16:02;16.90;;;10.00;;
36443;SDS011;24692;45.642;13.806;2024-02-04T04:18:28;14.33;;;9.83;;
36443;SDS011;24692;45.642;13.806;2024-02-04T04:20:54;14.83;;;10.50;;
36443;SDS011;24692;45.642;13.806;2024-02-04T04:23:19;15.17;;;10.57;;
36443;SDS011;24692;45.642;13.806;2024-02-04T04:25:45;17.47;;;10.13;;
36443;SDS011;24692;45.642;13.806;2024-02-04T04:28:11;14.13;;;10.10;;
36443;SDS011;24692;45.642;13.806;2024-02-04T04:30:36;13.63;;;9.80;;
36443;SDS011;24692;45.642;13.806;2024-02-04T04:33:02;13.50;;;9.90;;
36443;SDS011;24692;45.642;13.806;2024-02-04T04:35:28;14.57;;;10.20;;
36443;SDS011;24692;45.642;13.806;2024-02-04T04:37:53;16.10;;;10.07;;
36443;SDS011;24692;45.642;13.806;2024-02-04T04:40:19;17.20;;;9.57;;
36443;SDS011;24692;45.642;13.806;2024-02-04T04:42:44;17.03;;;10.27;;
36443;SDS011;24692;45.642;13.806;2024-02-04T04:45:10;19.93;;;10.83;;
36443;SDS011;24692;45.642;13.806;2024-02-04T04:47:36;20.73;;;10.93;;
36443;SDS011;24692;45.642;13.806;2024-02-04T04:50:02;14.23;;;9.90;;
36443;SDS011;24692;45.642;13.806;2024-02-04T04:52:30;14.97;;;10.00;;
36443;SDS011;24692;45.642;13.806;2024-02-04T04:54:55;13.20;;;9.33;;
36443;SDS011;24692;45.642;13.806;2024-02-04T04:57:21;13.00;;;8.50;;
36443;SDS011;24692;45.642;13.806;2024-02-04T04:59:47;13.20;;;9.13;;
36443;SDS011;24692;45.642;13.806;2024-02-04T05:02:13;12.03;;;8.07;;
36443;SDS011;24692;45.642;13.806;2024-02-04T05:04:42;12.93;;;7.97;;
36443;SDS011;24692;45.642;13.806;2024-02-04T05:07:08;11.70;;;7.70;;
36443;SDS011;24692;45.642;13.806;2024-02-04T05:09:34;13.70;;;8.47;;
36443;SDS011;24692;45.642;13.806;2024-02-04T05:12:00;10.97;;;8.10;;
36443;SDS011;24692;45.642;13.806;2024-02-04T05:14:25;12.77;;;8.67;;
36443;SDS011;24692;45.642;13.806;2024-02-04T05:16:51;12.90;;;8.53;;
36443;SDS011;24692;45.642;13.806;2024-02-04T05:19:17;14.20;;;8.53;;
36443;SDS011;24692;45.642;13.806;2024-02-04T05:21:42;11.03;;;8.47;;
36443;SDS011;24692;45.642;13.806;2024-02-04T05:24:08;15.03;;;8.90;;
36443;SDS011;24692;45.642;13.806;2024-02-04T05:26:38;12.37;;;8.20;;
36443;SDS011;24692;45.642;13.806;2024-02-04T05:29:04;13.73;;;8.60;;
36443;SDS011;24692;45.642;13.806;2024-02-04T05:31:30;12.70;;;8.77;;
36443;SDS011;24692;45.642;13.806;2024-02-04T05:33:56;11.63;;;8.30;;
36443;SDS011;24692;45.642;13.806;2024-02-04T05:36:21;15.20;;;8.97;;
36443;SDS011;24692;45.642;13.806;2024-02-04T05:38:47;11.47;;;8.67;;
36443;SDS011;24692;45.642;13.806;2024-02-04T05:41:13;11.33;;;8.87;;
36443;SDS011;24692;45.642;13.806;2024-02-04T05:43:39;12.23;;;8.60;;
36443;SDS011;24692;45.642;13.806;2024-02-04T05:46:05;14.00;;;8.53;;
36443;SDS011;24692;45.642;13.806;2024-02-04T05:48:30;14.30;;;8.73;;
36443;SDS011;24692;45.642;13.806;2024-02-04T05:50:56;11.37;;;8.40;;
36443;SDS011;24692;45.642;13.806;2024-02-04T05:53:22;11.30;;;8.03;;
36443;SDS011;24692;45.642;13.806;2024-02-04T05:55:47;11.87;;;8.07;;
36443;SDS011;24692;45.642;13.806;2024-02-04T05:58:13;13.70;;;8.33;;
36443;SDS011;24692;45.642;13.806;2024-02-04T06:00:39;14.40;;;8.73;;
36443;SDS011;24692;45.642;13.806;2024-02-04T06:03:05;12.17;;;8.07;;
36443;SDS011;24692;45.642;13.806;2024-02-04T06:05:31;11.97;;;7.73;;
36443;SDS011;24692;45.642;13.806;2024-02-04T06:07:57;13.17;;;8.17;;
36443;SDS011;24692;45.642;13.806;2024-02-04T06:10:22;13.37;;;8.30;;
36443;SDS011;24692;45.642;13.806;2024-02-04T06:12:48;12.20;;;8.23;;
36443;SDS011;24692;45.642;13.806;2024-02-04T06:15:14;11.27;;;7.83;;
36443;SDS011;24692;45.642;13.806;2024-02-04T06:17:40;12.70;;;9.37;;
36443;SDS011;24692;45.642;13.806;2024-02-04T06:20:06;13.27;;;8.07;;
36443;SDS011;24692;45.642;13.806;2024-02-04T06:22:35;13.00;;;7.93;;
36443;SDS011;24692;45.642;13.806;2024-02-04T06:25:04;11.83;;;7.77;;
36443;SDS011;24692;45.642;13.806;2024-02-04T06:27:30;11.37;;;7.40;;
36443;SDS011;24692;45.642;13.806;2024-02-04T06:29:56;11.37;;;7.60;;
36443;SDS011;24692;45.642;13.806;2024-02-04T06:32:22;12.80;;;7.60;;
36443;SDS011;24692;45.642;13.806;2024-02-04T06:34:49;11.83;;;7.90;;
36443;SDS011;24692;45.642;13.806;2024-02-04T06:37:16;10.07;;;7.33;;
36443;SDS011;24692;45.642;13.806;2024-02-04T06:39:42;10.97;;;7.80;;
36443;SDS011;24692;45.642;13.806;2024-02-04T06:42:08;11.70;;;7.67;;
36443;SDS011;24692;45.642;13.806;2024-02-04T06:44:33;12.73;;;8.20;;
36443;SDS011;24692;45.642;13.806;2024-02-04T06:46:59;10.60;;;7.37;;
36443;SDS011;24692;45.642;13.806;2024-02-04T06:49:25;11.03;;;7.80;;
36443;SDS011;24692;45.642;13.806;2024-02-04T06:51:51;14.33;;;8.57;;
36443;SDS011;24692;45.642;13.806;2024-02-04T06:54:21;12.13;;;7.80;;
36443;SDS011;24692;45.642;13.806;2024-02-04T06:56:50;11.67;;;7.33;;
36443;SDS011;24692;45.642;13.806;2024-02-04T06:59:19;12.90;;;7.83;;
36443;SDS011;24692;45.642;13.806;2024-02-04T07:01:45;13.53;;;8.30;;
36443;SDS011;24692;45.642;13.806;2024-02-04T07:04:11;12.67;;;7.97;;
36443;SDS011;24692;45.642;13.806;2024-02-04T07:06:37;12.33;;;7.73;;
36443;SDS011;24692;45.642;13.806;2024-02-04T07:09:02;17.47;;;8.23;;
36443;SDS011;24692;45.642;13.806;2024-02-04T07:11:28;13.27;;;9.13;;
36443;SDS011;24692;45.642;13.806;2024-02-04T07:13:54;13.87;;;8.47;;
36443;SDS011;24692;45.642;13.806;2024-02-04T07:16:27;14.47;;;8.63;;
36443;SDS011;24692;45.642;13.806;2024-02-04T07:18:53;15.00;;;8.37;;
36443;SDS011;24692;45.642;13.806;2024-02-04T07:21:20;16.00;;;8.67;;
36443;SDS011;24692;45.642;13.806;2024-02-04T07:23:45;14.47;;;7.63;;
36443;SDS011;24692;45.642;13.806;2024-02-04T07:26:11;12.73;;;7.53;;
36443;SDS011;24692;45.642;13.806;2024-02-04T07:28:37;14.27;;;8.33;;
36443;SDS011;24692;45.642;13.806;2024-02-04T07:31:02;12.73;;;7.93;;
36443;SDS011;24692;45.642;13.806;2024-02-04T07:33:29;12.57;;;7.93;;
36443;SDS011;24692;45.642;13.806;2024-02-04T07:35:55;12.90;;;8.33;;
36443;SDS011;24692;45.642;13.806;2024-02-04T07:38:21;15.07;;;8.37;;
36443;SDS011;24692;45.642;13.806;2024-02-04T07:40:46;13.27;;;8.20;;
36443;SDS011;24692;45.642;13.806;2024-02-04T07:43:12;12.27;;;8.07;;
36443;SDS011;24692;45.642;13.806;2024-02-04T07:45:38;13.70;;;7.73;;
36443;SDS011;24692;45.642;13.806;2024-02-04T07:48:04;13.40;;;8.07;;
36443;SDS011;24692;45.642;13.806;2024-02-04T07:50:29;13.03;;;7.93;;
36443;SDS011;24692;45.642;13.806;2024-02-04T07:52:55;10.97;;;7.20;;
36443;SDS011;24692;45.642;13.806;2024-02-04T07:55:21;14.50;;;7.73;;
36443;SDS011;24692;45.642;13.806;2024-02-04T07:57:46;10.97;;;7.43;;
36443;SDS011;24692;45.642;13.806;2024-02-04T08:00:12;12.60;;;8.50;;
36443;SDS011;24692;45.642;13.806;2024-02-04T08:02:38;12.17;;;8.23;;
36443;SDS011;24692;45.642;13.806;2024-02-04T08:05:04;13.47;;;8.70;;
36443;SDS011;24692;45.642;13.806;2024-02-04T08:07:31;13.63;;;9.63;;
36443;SDS011;24692;45.642;13.806;2024-02-04T08:09:57;14.97;;;9.10;;
36443;SDS011;24692;45.642;13.806;2024-02-04T08:12:22;12.57;;;7.93;;
36443;SDS011;24692;45.642;13.806;2024-02-04T08:14:48;16.10;;;10.60;;
36443;SDS011;24692;45.642;13.806;2024-02-04T08:17:14;13.67;;;9.03;;
36443;SDS011;24692;45.642;13.806;2024-02-04T08:19:40;12.17;;;8.73;;
36443;SDS011;24692;45.642;13.806;2024-02-04T08:22:06;13.93;;;9.97;;
36443;SDS011;24692;45.642;13.806;2024-02-04T08:24:32;13.67;;;9.43;;
36443;SDS011;24692;45.642;13.806;2024-02-04T08:26:59;15.43;;;9.63;;
36443;SDS011;24692;45.642;13.806;2024-02-04T08:29:24;13.50;;;9.30;;
36443;SDS011;24692;45.642;13.806;2024-02-04T08:31:52;12.70;;;9.20;;
36443;SDS011;24692;45.642;13.806;2024-02-04T08:34:18;14.40;;;8.97;;
36443;SDS011;24692;45.642;13.806;2024-02-04T08:36:45;13.23;;;9.10;;
36443;SDS011;24692;45.642;13.806;2024-02-04T08:39:11;12.40;;;9.10;;
36443;SDS011;24692;45.642;13.806;2024-02-04T08:41:37;14.97;;;10.10;;
36443;SDS011;24692;45.642;13.806;2024-02-04T08:44:02;16.37;;;9.23;;
36443;SDS011;24692;45.642;13.806;2024-02-04T08:46:28;12.10;;;8.80;;
36443;SDS011;24692;45.642;13.806;2024-02-04T08:48:54;15.48;;;8.60;;
36443;SDS011;24692;45.642;13.806;2024-02-04T08:51:19;10.93;;;7.78;;
36443;SDS011;24692;45.642;13.806;2024-02-04T08:53:45;12.30;;;8.73;;
36443;SDS011;24692;45.642;13.806;2024-02-04T08:56:10;13.18;;;9.25;;
36443;SDS011;24692;45.642;13.806;2024-02-04T08:58:37;12.10;;;8.60;;
36443;SDS011;24692;45.642;13.806;2024-02-04T09:01:04;11.57;;;8.98;;
36443;SDS011;24692;45.642;13.806;2024-02-04T09:03:30;12.18;;;8.48;;
36443;SDS011;24692;45.642;13.806;2024-02-04T09:05:56;11.80;;;8.80;;
36443;SDS011;24692;45.642;13.806;2024-02-04T09:08:22;14.18;;;9.20;;
36443;SDS011;24692;45.642;13.806;2024-02-04T09:10:48;14.30;;;10.35;;
36443;SDS011;24692;45.642;13.806;2024-02-04T09:13:14;12.63;;;9.18;;
36443;SDS011;24692;45.642;13.806;2024-02-04T09:15:39;13.75;;;9.85;;
36443;SDS011;24692;45.642;13.806;2024-02-04T09:18:05;16.40;;;10.35;;
36443;SDS011;24692;45.642;13.806;2024-02-04T09:20:31;15.25;;;10.75;;
36443;SDS011;24692;45.642;13.806;2024-02-04T09:22:56;15.50;;;11.68;;
36443;SDS011;24692;45.642;13.806;2024-02-04T09:25:22;19.38;;;12.13;;
36443;SDS011;24692;45.642;13.806;2024-02-04T09:27:49;25.65;;;19.25;;
36443;SDS011;24692;45.642;13.806;2024-02-04T09:30:15;23.25;;;16.42;;
36443;SDS011;24692;45.642;13.806;2024-02-04T09:32:41;29.30;;;22.25;;
36443;SDS011;24692;45.642;13.806;2024-02-04T09:35:07;26.75;;;18.35;;
36443;SDS011;24692;45.642;13.806;2024-02-04T09:37:34;28.00;;;19.63;;
36443;SDS011;24692;45.642;13.806;2024-02-04T09:40:00;24.48;;;19.75;;
36443;SDS011;24692;45.642;13.806;2024-02-04T09:42:26;26.27;;;20.73;;
36443;SDS011;24692;45.642;13.806;2024-02-04T09:44:53;24.88;;;18.33;;
36443;SDS011;24692;45.642;13.806;2024-02-04T09:47:19;25.70;;;19.58;;
36443;SDS011;24692;45.642;13.806;2024-02-04T09:49:45;33.40;;;24.67;;
36443;SDS011;24692;45.642;13.806;2024-02-04T09:52:11;33.70;;;23.35;;
36443;SDS011;24692;45.642;13.806;2024-02-04T09:54:44;36.22;;;27.77;;
36443;SDS011;24692;45.642;13.806;2024-02-04T09:57:10;31.83;;;23.52;;
36443;SDS011;24692;45.642;13.806;2024-02-04T09:59:37;34.45;;;26.13;;
36443;SDS011;24692;45.642;13.806;2024-02-04T10:02:03;35.17;;;28.33;;
36443;SDS011;24692;45.642;13.806;2024-02-04T10:04:30;37.25;;;27.25;;
36443;SDS011;24692;45.642;13.806;2024-02-04T10:06:56;37.50;;;28.77;;
36443;SDS011;24692;45.642;13.806;2024-02-04T10:09:22;41.65;;;29.50;;
36443;SDS011;24692;45.642;13.806;2024-02-04T10:11:47;36.63;;;27.92;;
36443;SDS011;24692;45.642;13.806;2024-02-04T10:14:13;38.75;;;28.33;;
36443;SDS011;24692;45.642;13.806;2024-02-04T10:16:40;43.30;;;31.67;;
36443;SDS011;24692;45.642;13.806;2024-02-04T10:19:06;42.17;;;30.38;;
36443;SDS011;24692;45.642;13.806;2024-02-04T10:21:32;33.42;;;24.50;;
36443;SDS011;24692;45.642;13.806;2024-02-04T10:23:58;42.53;;;29.02;;
36443;SDS011;24692;45.642;13.806;2024-02-04T10:26:24;39.63;;;29.60;;
36443;SDS011;24692;45.642;13.806;2024-02-04T10:28:59;43.00;;;31.48;;
36443;SDS011;24692;45.642;13.806;2024-02-04T10:31:25;44.58;;;32.42;;
36443;SDS011;24692;45.642;13.806;2024-02-04T10:33:52;41.10;;;31.48;;
36443;SDS011;24692;45.642;13.806;2024-02-04T10:36:18;42.22;;;31.33;;
36443;SDS011;24692;45.642;13.806;2024-02-04T10:38:43;46.03;;;31.92;;
36443;SDS011;24692;45.642;13.806;2024-02-04T10:41:13;40.85;;;29.05;;
36443;SDS011;24692;45.642;13.806;2024-02-04T10:43:40;43.33;;;29.23;;
36443;SDS011;24692;45.642;13.806;2024-02-04T10:46:18;39.65;;;28.15;;
36443;SDS011;24692;45.642;13.806;2024-02-04T10:48:45;46.42;;;33.10;;
36443;SDS011;24692;45.642;13.806;2024-02-04T10:51:20;48.57;;;35.10;;
36443;SDS011;24692;45.642;13.806;2024-02-04T10:53:50;40.60;;;30.65;;
36443;SDS011;24692;45.642;13.806;2024-02-04T10:56:19;47.63;;;34.40;;
36443;SDS011;24692;45.642;13.806;2024-02-04T10:58:50;46.70;;;33.88;;
36443;SDS011;24692;45.642;13.806;2024-02-04T11:01:17;51.92;;;37.10;;
36443;SDS011;24692;45.642;13.806;2024-02-04T11:03:43;52.45;;;37.60;;
36443;SDS011;24692;45.642;13.806;2024-02-04T11:06:11;54.35;;;37.35;;
36443;SDS011;24692;45.642;13.806;2024-02-04T11:08:38;55.53;;;40.00;;
36443;SDS011;24692;45.642;13.806;2024-02-04T11:11:04;56.90;;;39.88;;
36443;SDS011;24692;45.642;13.806;2024-02-04T11:13:30;59.75;;;42.25;;
36443;SDS011;24692;45.642;13.806;2024-02-04T11:15:58;52.30;;;38.70;;
36443;SDS011;24692;45.642;13.806;2024-02-04T11:26:27;55.05;;;40.03;;
36443;SDS011;24692;45.642;13.806;2024-02-04T11:28:54;56.90;;;42.10;;
36443;SDS011;24692;45.642;13.806;2024-02-04T11:31:20;59.17;;;41.35;;
36443;SDS011;24692;45.642;13.806;2024-02-04T11:33:45;54.50;;;39.53;;
36443;SDS011;24692;45.642;13.806;2024-02-04T11:36:15;55.17;;;40.47;;
36443;SDS011;24692;45.642;13.806;2024-02-04T11:38:43;52.40;;;39.60;;
36443;SDS011;24692;45.642;13.806;2024-02-04T11:41:20;57.33;;;42.08;;
36443;SDS011;24692;45.642;13.806;2024-02-04T11:43:53;52.50;;;38.58;;
36443;SDS011;24692;45.642;13.806;2024-02-04T11:46:20;58.22;;;41.00;;
36443;SDS011;24692;45.642;13.806;2024-02-04T11:48:52;42.72;;;31.40;;
36443;SDS011;24692;45.642;13.806;2024-02-04T11:51:21;54.43;;;39.10;;
36443;SDS011;24692;45.642;13.806;2024-02-04T11:53:47;55.97;;;39.90;;
36443;SDS011;24692;45.642;13.806;2024-02-04T11:56:13;52.33;;;38.47;;
36443;SDS011;24692;45.642;13.806;2024-02-04T11:58:39;58.78;;;38.40;;
36443;SDS011;24692;45.642;13.806;2024-02-04T12:01:09;55.22;;;38.55;;
36443;SDS011;24692;45.642;13.806;2024-02-04T12:03:35;54.28;;;38.38;;
36443;SDS011;24692;45.642;13.806;2024-02-04T12:06:02;62.03;;;43.90;;
36443;SDS011;24692;45.642;13.806;2024-02-04T12:08:29;62.40;;;43.80;;
36443;SDS011;24692;45.642;13.806;2024-02-04T12:10:57;64.00;;;45.38;;
36443;SDS011;24692;45.642;13.806;2024-02-04T12:13:24;67.50;;;47.10;;
36443;SDS011;24692;45.642;13.806;2024-02-04T12:15:50;65.10;;;46.10;;
36443;SDS011;24692;45.642;13.806;2024-02-04T12:18:16;71.88;;;49.25;;
36443;SDS011;24692;45.642;13.806;2024-02-04T12:20:45;70.93;;;49.23;;
36443;SDS011;24692;45.642;13.806;2024-02-04T12:23:13;69.75;;;47.75;;
36443;SDS011;24692;45.642;13.806;2024-02-04T12:25:40;72.43;;;49.13;;
36443;SDS011;24692;45.642;13.806;2024-02-04T12:28:05;76.00;;;50.87;;
36443;SDS011;24692;45.642;13.806;2024-02-04T12:30:32;73.47;;;48.00;;
36443;SDS011;24692;45.642;13.806;2024-02-04T12:32:58;82.72;;;56.30;;
36443;SDS011;24692;45.642;13.806;2024-02-04T12:35:31;73.55;;;48.90;;
36443;SDS011;24692;45.642;13.806;2024-02-04T12:37:58;85.37;;;56.23;;
36443;SDS011;24692;45.642;13.806;2024-02-04T12:40:25;86.93;;;56.77;;
36443;SDS011;24692;45.642;13.806;2024-02-04T12:42:54;69.97;;;47.90;;
36443;SDS011;24692;45.642;13.806;2024-02-04T12:45:20;88.80;;;58.22;;
36443;SDS011;24692;45.642;13.806;2024-02-04T12:47:53;80.73;;;54.47;;
36443;SDS011;24692;45.642;13.806;2024-02-04T12:50:22;91.83;;;61.07;;
36443;SDS011;24692;45.642;13.806;2024-02-04T12:52:49;86.03;;;57.30;;
36443;SDS011;24692;45.642;13.806;2024-02-04T12:55:27;89.37;;;59.80;;
36443;SDS011;24692;45.642;13.806;2024-02-04T12:58:09;83.50;;;54.43;;
36443;SDS011;24692;45.642;13.806;2024-02-04T13:00:43;85.67;;;55.60;;
36443;SDS011;24692;45.642;13.806;2024-02-04T13:03:09;88.47;;;58.13;;
36443;SDS011;24692;45.642;13.806;2024-02-04T13:05:35;87.43;;;56.20;;
36443;SDS011;24692;45.642;13.806;2024-02-04T13:08:02;88.90;;;60.53;;
36443;SDS011;24692;45.642;13.806;2024-02-04T13:10:34;87.30;;;58.87;;
36443;SDS011;24692;45.642;13.806;2024-02-04T13:13:04;91.67;;;61.73;;
36443;SDS011;24692;45.642;13.806;2024-02-04T13:15:38;93.60;;;64.23;;
36443;SDS011;24692;45.642;13.806;2024-02-04T13:18:05;94.70;;;60.40;;
36443;SDS011;24692;45.642;13.806;2024-02-04T13:20:31;88.23;;;57.80;;
36443;SDS011;24692;45.642;13.806;2024-02-04T13:22:57;93.50;;;61.80;;
36443;SDS011;24692;45.642;13.806;2024-02-04T13:25:25;93.87;;;61.53;;
36443;SDS011;24692;45.642;13.806;2024-02-04T13:27:50;90.07;;;61.10;;
36443;SDS011;24692;45.642;13.806;2024-02-04T13:30:17;92.20;;;60.90;;
36443;SDS011;24692;45.642;13.806;2024-02-04T13:32:44;92.20;;;60.92;;
36443;SDS011;24692;45.642;13.806;2024-02-04T13:35:10;98.87;;;63.50;;
36443;SDS011;24692;45.642;13.806;2024-02-04T13:37:36;84.57;;;58.17;;
36443;SDS011;24692;45.642;13.806;2024-02-04T13:40:06;93.13;;;61.87;;
36443;SDS011;24692;45.642;13.806;2024-02-04T13:42:33;84.13;;;54.33;;
36443;SDS011;24692;45.642;13.806;2024-02-04T13:45:00;91.10;;;60.43;;
36443;SDS011;24692;45.642;13.806;2024-02-04T13:47:27;97.47;;;64.30;;
36443;SDS011;24692;45.642;13.806;2024-02-04T13:49:53;74.87;;;49.83;;
36443;SDS011;24692;45.642;13.806;2024-02-04T13:52:19;81.23;;;54.70;;
36443;SDS011;24692;45.642;13.806;2024-02-04T13:54:45;97.87;;;63.70;;
36443;SDS011;24692;45.642;13.806;2024-02-04T13:57:11;92.23;;;61.53;;
36443;SDS011;24692;45.642;13.806;2024-02-04T13:59:37;96.90;;;63.13;;
36443;SDS011;24692;45.642;13.806;2024-02-04T14:02:02;99.90;;;65.90;;
36443;SDS011;24692;45.642;13.806;2024-02-04T14:04:29;101.20;;;65.93;;
36443;SDS011;24692;45.642;13.806;2024-02-04T14:06:56;96.80;;;62.93;;
36443;SDS011;24692;45.642;13.806;2024-02-04T14:09:22;99.83;;;65.80;;
36443;SDS011;24692;45.642;13.806;2024-02-04T14:11:47;97.10;;;64.97;;
36443;SDS011;24692;45.642;13.806;2024-02-04T14:14:13;99.80;;;66.50;;
36443;SDS011;24692;45.642;13.806;2024-02-04T14:16:39;104.80;;;66.97;;
36443;SDS011;24692;45.642;13.806;2024-02-04T14:19:05;100.97;;;67.43;;
36443;SDS011;24692;45.642;13.806;2024-02-04T14:21:30;105.50;;;67.33;;
36443;SDS011;24692;45.642;13.806;2024-02-04T14:23:56;85.23;;;56.70;;